createdAt,value
2023-03-20T00:02:04.794Z,11.30
2023-03-20T00:04:34.206Z,11.30
2023-03-20T00:07:03.719Z,11.20
2023-03-20T00:09:31.611Z,11.10
2023-03-20T00:12:00.226Z,11.00
2023-03-20T00:14:28.510Z,11.00
2023-03-20T00:16:56.468Z,10.90
2023-03-20T00:19:30.928Z,10.90
2023-03-20T00:22:00.502Z,10.90
2023-03-20T00:24:28.431Z,10.90
2023-03-20T00:26:56.493Z,11.00
2023-03-20T00:29:26.080Z,11.00
2023-03-20T00:31:55.191Z,11.00
2023-03-20T00:34:25.756Z,11.10
2023-03-20T00:36:54.736Z,11.10
2023-03-20T00:39:24.625Z,11.20
2023-03-20T00:41:54.864Z,11.20
2023-03-20T00:44:25.499Z,11.20
2023-03-20T00:46:55.879Z,11.30
2023-03-20T00:49:26.432Z,11.20
2023-03-20T00:51:54.489Z,11.30
2023-03-20T00:54:23.795Z,11.30
2023-03-20T00:56:55.998Z,11.30
2023-03-20T00:59:27.420Z,11.30
2023-03-20T01:01:56.523Z,11.30
2023-03-20T01:04:24.535Z,11.30
2023-03-20T01:06:52.707Z,11.30
2023-03-20T01:09:20.622Z,11.30
2023-03-20T01:11:50.799Z,11.30
2023-03-20T01:14:18.766Z,11.30
2023-03-20T01:16:46.868Z,11.30
2023-03-20T01:19:16.627Z,11.30
2023-03-20T01:21:44.757Z,11.30
2023-03-20T01:24:12.649Z,11.20
2023-03-20T01:26:42.154Z,11.20
2023-03-20T01:29:19.749Z,11.20
2023-03-20T01:31:48.125Z,11.10
2023-03-20T01:34:17.302Z,11.10
2023-03-20T01:36:49.157Z,11.10
2023-03-20T01:39:17.944Z,11.10
2023-03-20T01:41:47.105Z,11.10
2023-03-20T01:44:22.233Z,11.10
2023-03-20T01:46:52.732Z,11.10
2023-03-20T01:49:58.138Z,11.10
2023-03-20T01:52:26.095Z,11.00
2023-03-20T01:54:54.190Z,11.00
2023-03-20T01:57:26.504Z,11.10
2023-03-20T02:00:01.620Z,11.10
2023-03-20T02:02:32.421Z,11.10
2023-03-20T02:05:04.276Z,11.10
2023-03-20T02:07:36.010Z,11.10
2023-03-20T02:10:05.516Z,11.20
2023-03-20T02:12:34.522Z,11.20
2023-03-20T02:15:04.695Z,11.20
2023-03-20T02:17:32.975Z,11.20
2023-03-20T02:20:11.306Z,11.20
2023-03-20T02:23:29.838Z,11.20
2023-03-20T02:26:26.890Z,11.20
2023-03-20T02:29:32.054Z,11.10
2023-03-20T02:32:21.717Z,11.10
2023-03-20T02:35:11.713Z,11.00
2023-03-20T02:38:00.733Z,11.00
2023-03-20T02:40:39.363Z,10.90
2023-03-20T02:43:16.180Z,10.90
2023-03-20T02:45:52.969Z,10.90
2023-03-20T02:48:34.295Z,11.00
2023-03-20T02:51:06.071Z,11.00
2023-03-20T02:53:43.325Z,11.00
2023-03-20T02:56:17.415Z,11.00
2023-03-20T02:58:52.101Z,11.00
2023-03-20T03:01:26.129Z,11.10
2023-03-20T03:03:58.108Z,11.00
2023-03-20T03:06:31.545Z,11.00
2023-03-20T03:09:04.945Z,10.90
2023-03-20T03:11:36.698Z,10.90
2023-03-20T03:14:05.803Z,10.80
2023-03-20T03:16:38.439Z,10.80
2023-03-20T03:19:09.910Z,10.70
2023-03-20T03:21:40.689Z,10.70
2023-03-20T03:24:39.746Z,10.60
2023-03-20T03:27:14.145Z,10.60
2023-03-20T03:29:42.935Z,10.50
2023-03-20T03:32:25.966Z,10.50
2023-03-20T03:34:54.571Z,10.40
2023-03-20T03:37:30.360Z,10.40
2023-03-20T03:40:08.133Z,10.40
2023-03-20T03:42:40.760Z,10.40
2023-03-20T03:45:14.633Z,10.40
2023-03-20T03:47:47.063Z,10.40
2023-03-20T03:50:19.123Z,10.40
2023-03-20T03:52:50.548Z,10.40
2023-03-20T03:55:23.880Z,10.40
2023-03-20T03:57:56.949Z,10.40
2023-03-20T04:00:27.991Z,10.40
2023-03-20T04:02:58.076Z,10.40
2023-03-20T04:05:31.381Z,10.30
2023-03-20T04:08:00.992Z,10.30
2023-03-20T04:10:30.658Z,10.20
2023-03-20T04:12:58.763Z,10.20
2023-03-20T04:15:28.025Z,10.20
2023-03-20T04:17:56.399Z,10.20
2023-03-20T04:20:24.583Z,10.20
2023-03-20T04:22:53.264Z,10.30
2023-03-20T04:25:23.988Z,10.30
2023-03-20T04:27:54.567Z,10.30
2023-03-20T04:30:25.749Z,10.30
2023-03-20T04:32:53.929Z,10.30
2023-03-20T04:35:22.083Z,10.30
2023-03-20T04:37:50.275Z,10.20
2023-03-20T04:40:18.567Z,10.30
2023-03-20T04:42:46.784Z,10.20
2023-03-20T04:45:16.237Z,10.10
2023-03-20T04:47:44.134Z,10.00
2023-03-20T04:50:13.968Z,10.00
2023-03-20T04:52:41.926Z,9.90
2023-03-20T04:55:10.732Z,9.90
2023-03-20T04:57:38.858Z,9.90
2023-03-20T05:00:08.085Z,10.00
2023-03-20T05:02:37.512Z,10.00
2023-03-20T05:05:06.249Z,9.90
2023-03-20T05:07:34.353Z,10.00
2023-03-20T05:10:02.426Z,10.00
2023-03-20T05:12:30.491Z,9.90
2023-03-20T05:14:58.508Z,9.90
2023-03-20T05:17:26.659Z,9.90
2023-03-20T05:19:56.006Z,9.90
2023-03-20T05:22:24.933Z,10.00
2023-03-20T05:24:53.161Z,10.00
2023-03-20T05:27:21.441Z,10.10
2023-03-20T05:29:49.942Z,10.10
2023-03-20T05:32:18.379Z,10.10
2023-03-20T05:34:46.391Z,10.10
2023-03-20T05:37:15.766Z,10.20
2023-03-20T05:39:43.840Z,10.20
2023-03-20T05:42:14.751Z,10.20
2023-03-20T05:44:42.868Z,10.30
2023-03-20T05:47:10.855Z,10.30
2023-03-20T05:49:38.827Z,10.30
2023-03-20T05:52:07.340Z,10.30
2023-03-20T05:54:37.174Z,10.30
2023-03-20T05:57:05.531Z,10.30
2023-03-20T05:59:33.701Z,10.30
2023-03-20T06:02:06.927Z,10.30
2023-03-20T06:04:37.458Z,10.30
2023-03-20T06:07:07.011Z,10.40
2023-03-20T06:09:36.784Z,10.40
2023-03-20T06:12:05.118Z,10.50
2023-03-20T06:14:33.174Z,10.50
2023-03-20T06:17:01.126Z,10.60
2023-03-20T06:19:28.972Z,10.60
2023-03-20T06:21:57.069Z,10.70
2023-03-20T06:24:25.046Z,10.70
2023-03-20T06:26:54.708Z,10.70
2023-03-20T06:29:22.773Z,10.70
2023-03-20T06:31:50.882Z,10.70
2023-03-20T06:34:18.885Z,10.70
2023-03-20T06:36:48.446Z,10.80
2023-03-20T06:39:16.800Z,10.80
2023-03-20T06:41:44.847Z,10.90
2023-03-20T06:44:14.366Z,10.90
2023-03-20T06:46:42.406Z,11.00
2023-03-20T06:49:10.817Z,11.00
2023-03-20T06:51:39.287Z,11.10
2023-03-20T06:54:07.346Z,11.20
2023-03-20T06:56:35.291Z,11.20
2023-03-20T06:59:03.319Z,11.20
2023-03-20T07:01:32.745Z,11.30
2023-03-20T07:04:00.808Z,11.30
2023-03-20T07:06:28.930Z,11.30
2023-03-20T07:08:57.021Z,11.30
2023-03-20T07:11:25.140Z,11.40
2023-03-20T07:13:53.125Z,11.40
2023-03-20T07:16:21.105Z,11.40
2023-03-20T07:18:50.604Z,11.60
2023-03-20T07:21:21.644Z,11.50
2023-03-20T07:23:49.763Z,11.60
2023-03-20T07:26:18.097Z,11.60
2023-03-20T07:28:46.449Z,11.70
2023-03-20T07:31:22.660Z,11.70
2023-03-20T07:33:52.123Z,11.80
2023-03-20T07:36:25.025Z,11.90
2023-03-20T07:38:53.267Z,12.00
2023-03-20T07:41:21.632Z,12.00
2023-03-20T07:43:49.695Z,12.10
2023-03-20T07:46:18.553Z,12.20
2023-03-20T07:48:46.651Z,12.30
2023-03-20T07:51:15.969Z,12.40
2023-03-20T07:53:43.972Z,12.40
2023-03-20T07:56:14.989Z,12.40
2023-03-20T07:58:43.007Z,12.50
2023-03-20T08:01:11.204Z,12.50
2023-03-20T08:03:39.765Z,12.60
2023-03-20T08:06:09.720Z,12.50
2023-03-20T08:08:39.380Z,12.40
2023-03-20T08:11:07.525Z,12.40
2023-03-20T08:13:35.603Z,12.30
2023-03-20T08:16:15.716Z,12.40
2023-03-20T08:18:44.176Z,12.50
2023-03-20T08:21:12.311Z,12.50
2023-03-20T08:23:44.149Z,12.60
2023-03-20T08:26:12.830Z,12.70
2023-03-20T08:28:47.625Z,12.90
2023-03-20T08:31:18.106Z,13.00
2023-03-20T08:33:47.175Z,13.20
2023-03-20T08:36:16.224Z,13.30
2023-03-20T08:38:56.466Z,13.50
2023-03-20T08:41:27.646Z,13.60
2023-03-20T08:44:27.523Z,13.80
2023-03-20T08:49:58.524Z,14.10
2023-03-20T08:53:15.967Z,14.10
2023-03-20T08:56:17.115Z,14.20
2023-03-20T08:58:49.944Z,14.10
2023-03-20T09:01:49.091Z,14.20
2023-03-20T09:04:47.516Z,14.30
2023-03-20T09:08:24.396Z,14.40
2023-03-20T09:14:30.581Z,14.40
2023-03-20T09:17:04.393Z,14.30
2023-03-20T09:19:45.046Z,14.30
2023-03-20T09:22:31.238Z,14.30
2023-03-20T09:25:05.289Z,14.10
2023-03-20T09:27:38.372Z,14.10
2023-03-20T09:30:09.417Z,14.10
2023-03-20T09:32:38.869Z,14.10
2023-03-20T09:35:10.302Z,14.20
2023-03-20T09:37:40.109Z,14.40
2023-03-20T09:40:11.419Z,14.70
2023-03-20T09:42:49.737Z,14.90
2023-03-20T09:45:30.776Z,15.10
2023-03-20T09:48:06.420Z,15.20
2023-03-20T09:50:39.232Z,15.20
2023-03-20T09:53:14.579Z,15.30
2023-03-20T09:55:45.094Z,15.30
2023-03-20T09:58:33.289Z,15.30
2023-03-20T10:01:37.718Z,15.30
2023-03-20T10:04:15.332Z,15.00
2023-03-20T10:06:51.597Z,15.00
2023-03-20T10:09:23.734Z,14.90
2023-03-20T10:12:10.720Z,14.90
2023-03-20T10:14:50.110Z,15.10
2023-03-20T10:17:32.917Z,15.20
2023-03-20T10:20:11.273Z,15.30
2023-03-20T10:22:43.416Z,15.30
2023-03-20T10:25:23.532Z,15.60
2023-03-20T10:27:58.789Z,15.70
2023-03-20T10:30:37.950Z,15.90
2023-03-20T10:33:19.030Z,16.10
2023-03-20T10:35:53.580Z,16.50
2023-03-20T10:38:30.899Z,16.70
2023-03-20T10:41:00.463Z,16.70
2023-03-20T10:43:33.296Z,16.80
2023-03-20T10:46:08.768Z,16.80
2023-03-20T10:48:40.491Z,16.90
2023-03-20T10:51:15.495Z,16.90
2023-03-20T10:53:48.564Z,17.00
2023-03-20T10:56:21.938Z,17.00
2023-03-20T10:58:59.327Z,17.10
2023-03-20T11:01:29.175Z,17.00
2023-03-20T11:03:57.613Z,16.80
2023-03-20T11:06:29.661Z,16.80
2023-03-20T11:08:58.490Z,16.70
2023-03-20T11:11:29.241Z,16.50
2023-03-20T11:14:10.644Z,16.40
2023-03-20T11:16:46.198Z,16.20
2023-03-20T11:19:18.510Z,16.10
2023-03-20T11:21:49.941Z,15.90
2023-03-20T11:24:29.355Z,15.90
2023-03-20T11:27:07.624Z,16.00
2023-03-20T11:29:36.253Z,16.10
2023-03-20T11:32:21.851Z,16.30
2023-03-20T11:34:51.142Z,16.40
2023-03-20T11:38:00.290Z,16.40
2023-03-20T11:41:06.392Z,16.40
2023-03-20T11:43:40.004Z,16.40
2023-03-20T11:46:14.148Z,16.40
2023-03-20T11:48:45.798Z,16.50
2023-03-20T11:51:28.409Z,16.70
2023-03-20T11:54:02.685Z,16.60
2023-03-20T11:56:33.217Z,16.60
2023-03-20T11:59:05.777Z,16.80
2023-03-20T12:01:44.831Z,16.80
2023-03-20T12:04:18.685Z,16.90
2023-03-20T12:06:55.251Z,16.90
2023-03-20T12:09:37.823Z,16.80
2023-03-20T12:12:15.373Z,16.60
2023-03-20T12:14:54.294Z,16.80
2023-03-20T12:17:39.470Z,16.90
2023-03-20T12:20:21.200Z,17.00
2023-03-20T12:23:02.599Z,17.20
2023-03-20T12:25:39.749Z,17.50
2023-03-20T12:28:18.134Z,17.80
2023-03-20T12:30:59.493Z,17.90
2023-03-20T12:33:44.162Z,18.00
2023-03-20T12:36:21.733Z,18.00
2023-03-20T12:39:10.810Z,18.00
2023-03-20T12:42:12.162Z,17.80
2023-03-20T12:45:14.577Z,17.60
2023-03-20T12:48:26.931Z,17.40
2023-03-20T12:51:02.865Z,17.40
2023-03-20T12:54:25.447Z,17.50
2023-03-20T12:57:08.363Z,17.50
2023-03-20T13:00:02.454Z,17.40
2023-03-20T13:02:51.144Z,17.10
2023-03-20T13:05:35.209Z,16.70
2023-03-20T13:08:35.293Z,16.50
2023-03-20T13:11:15.333Z,16.20
2023-03-20T13:13:58.260Z,15.80
2023-03-20T13:16:34.716Z,15.60
2023-03-20T13:19:21.482Z,15.50
2023-03-20T13:22:33.421Z,15.40
2023-03-20T13:25:11.177Z,15.40
2023-03-20T13:27:46.741Z,15.40
2023-03-20T13:30:31.066Z,15.30
2023-03-20T13:35:48.940Z,15.10
2023-03-20T13:38:21.698Z,15.10
2023-03-20T13:41:22.165Z,15.10
2023-03-20T13:43:54.667Z,15.20
2023-03-20T13:46:28.027Z,15.30
2023-03-20T13:49:04.626Z,15.60
2023-03-20T13:51:37.646Z,15.80
2023-03-20T13:54:29.717Z,16.00
2023-03-20T13:57:09.253Z,16.20
2023-03-20T14:00:03.961Z,16.30
2023-03-20T14:02:47.666Z,16.20
2023-03-20T14:05:21.612Z,16.20
2023-03-20T14:07:50.884Z,16.30
2023-03-20T14:10:39.442Z,16.40
2023-03-20T14:13:19.763Z,16.50
2023-03-20T14:15:56.221Z,16.60
2023-03-20T14:18:28.074Z,16.60
2023-03-20T14:21:02.567Z,16.50
2023-03-20T14:23:38.941Z,16.40
2023-03-20T14:26:11.372Z,16.30
2023-03-20T14:28:55.167Z,16.30
2023-03-20T14:31:32.864Z,16.30
2023-03-20T14:34:10.062Z,16.20
2023-03-20T14:37:02.399Z,16.20
2023-03-20T14:39:46.833Z,16.20
2023-03-20T14:42:25.094Z,16.20
2023-03-20T14:45:23.316Z,16.10
2023-03-20T14:48:01.942Z,16.00
2023-03-20T14:50:37.546Z,16.00
2023-03-20T14:53:16.427Z,15.90
2023-03-20T14:56:09.718Z,15.90
2023-03-20T14:58:54.482Z,15.90
2023-03-20T15:01:50.974Z,15.80
2023-03-20T15:07:48.935Z,15.60
2023-03-20T15:14:14.436Z,15.40
2023-03-20T15:16:48.928Z,15.40
2023-03-20T15:19:20.731Z,15.30
2023-03-20T15:22:02.514Z,15.30
2023-03-20T15:24:34.210Z,15.30
2023-03-20T15:27:03.408Z,15.20
2023-03-20T15:29:33.663Z,15.10
2023-03-20T15:32:38.028Z,15.10
2023-03-20T15:35:08.758Z,15.00
2023-03-20T15:37:44.612Z,15.00
2023-03-20T15:40:15.302Z,14.90
2023-03-20T15:42:53.190Z,14.80
2023-03-20T15:45:27.365Z,14.70
2023-03-20T15:48:08.041Z,14.70
2023-03-20T15:50:38.547Z,14.70
2023-03-20T15:53:11.399Z,14.70
2023-03-20T15:55:40.457Z,14.60
2023-03-20T15:58:09.510Z,14.70
2023-03-20T16:00:43.624Z,14.70
2023-03-20T16:03:22.699Z,14.60
2023-03-20T16:05:53.274Z,14.60
2023-03-20T16:08:27.900Z,14.60
2023-03-20T16:11:00.131Z,14.50
2023-03-20T16:13:34.980Z,14.40
2023-03-20T16:16:05.450Z,14.40
2023-03-20T16:18:37.929Z,14.30
2023-03-20T16:21:10.466Z,14.20
2023-03-20T16:23:42.864Z,14.10
2023-03-20T16:26:26.401Z,14.10
2023-03-20T16:32:01.873Z,13.90
2023-03-20T16:34:34.651Z,13.80
2023-03-20T16:37:29.910Z,13.70
2023-03-20T16:40:18.047Z,13.60
2023-03-20T16:42:46.940Z,13.50
2023-03-20T16:45:25.011Z,13.50
2023-03-20T16:48:14.478Z,13.40
2023-03-20T16:50:58.148Z,13.30
2023-03-20T16:53:33.791Z,13.30
2023-03-20T16:56:06.891Z,13.40
2023-03-20T16:58:35.676Z,13.30
2023-03-20T17:01:07.725Z,13.20
2023-03-20T17:03:40.533Z,13.10
2023-03-20T17:06:29.662Z,13.10
2023-03-20T17:09:02.257Z,13.00
2023-03-20T17:11:34.060Z,12.90
2023-03-20T17:14:03.530Z,12.80
2023-03-20T17:16:32.972Z,12.80
2023-03-20T17:19:05.687Z,12.70
2023-03-20T17:22:00.918Z,12.60
2023-03-20T17:24:31.338Z,12.50
2023-03-20T17:27:02.082Z,12.40
2023-03-20T17:29:35.416Z,12.40
2023-03-20T17:32:10.648Z,12.40
2023-03-20T17:34:39.084Z,12.30
2023-03-20T17:37:10.139Z,12.20
2023-03-20T17:39:38.626Z,12.20
2023-03-20T17:42:18.076Z,12.20
2023-03-20T17:44:47.820Z,12.20
2023-03-20T17:47:17.828Z,12.20
2023-03-20T17:49:54.512Z,12.10
2023-03-20T17:52:37.832Z,12.10
2023-03-20T17:55:06.768Z,12.10
2023-03-20T17:57:42.261Z,12.00
2023-03-20T18:00:15.265Z,12.00
2023-03-20T18:02:43.660Z,12.00
2023-03-20T18:05:11.971Z,12.00
2023-03-20T18:07:40.020Z,12.00
2023-03-20T18:10:16.579Z,12.10
2023-03-20T18:12:46.187Z,12.00
2023-03-20T18:15:15.088Z,12.00
2023-03-20T18:17:45.557Z,12.00
2023-03-20T18:20:25.303Z,12.00
2023-03-20T18:22:55.585Z,11.90
2023-03-20T18:25:37.670Z,11.90
2023-03-20T18:28:13.455Z,11.90
2023-03-20T18:30:53.443Z,11.90
2023-03-20T18:33:47.914Z,11.90
2023-03-20T18:36:18.363Z,11.90
2023-03-20T18:38:47.137Z,11.80
2023-03-20T18:41:15.775Z,11.70
2023-03-20T18:43:46.607Z,11.90
2023-03-20T18:46:20.503Z,11.70
2023-03-20T18:49:00.937Z,11.60
2023-03-20T18:52:07.896Z,11.60
2023-03-20T18:54:45.515Z,11.60
2023-03-20T18:57:17.732Z,11.60
2023-03-20T18:59:52.056Z,11.50
2023-03-20T19:02:20.438Z,11.40
2023-03-20T19:04:48.781Z,11.40
2023-03-20T19:07:19.725Z,11.40
2023-03-20T19:09:48.245Z,11.30
2023-03-20T19:12:16.605Z,11.30
2023-03-20T19:14:44.967Z,11.40
2023-03-20T19:17:17.222Z,11.30
2023-03-20T19:19:48.781Z,11.40
2023-03-20T19:22:29.733Z,11.30
2023-03-20T19:24:59.720Z,11.30
2023-03-20T19:27:28.279Z,11.30
2023-03-20T19:29:57.602Z,11.30
2023-03-20T19:32:35.393Z,11.30
2023-03-20T19:35:43.566Z,11.40
2023-03-20T19:37:52.890Z,11.40
2023-03-20T19:40:43.365Z,11.40
2023-03-20T19:43:12.414Z,11.30
2023-03-20T19:45:44.421Z,11.30
2023-03-20T19:48:16.878Z,11.30
2023-03-20T19:50:47.029Z,11.30
2023-03-20T19:53:18.781Z,11.30
2023-03-20T19:55:47.717Z,11.30
2023-03-20T19:58:16.384Z,11.40
2023-03-20T20:01:00.998Z,11.30
2023-03-20T20:03:32.322Z,11.30
2023-03-20T20:06:05.544Z,11.30
2023-03-20T20:08:47.420Z,11.30
2023-03-20T20:11:22.952Z,11.20
2023-03-20T20:14:06.748Z,11.20
2023-03-20T20:16:36.590Z,11.20
2023-03-20T20:19:06.542Z,11.10
2023-03-20T20:24:26.281Z,11.10
2023-03-20T20:27:15.277Z,11.00
2023-03-20T20:29:46.627Z,11.00
2023-03-20T20:32:14.668Z,11.00
2023-03-20T20:38:30.537Z,11.00
2023-03-20T20:40:42.111Z,11.00
2023-03-20T20:43:32.419Z,11.00
2023-03-20T20:46:03.405Z,11.00
2023-03-20T20:48:31.806Z,11.00
2023-03-20T20:51:05.033Z,11.10
2023-03-20T20:53:39.824Z,11.00
2023-03-20T20:56:09.826Z,11.00
2023-03-20T20:58:41.479Z,10.90
2023-03-20T21:01:15.916Z,10.90
2023-03-20T21:03:45.204Z,10.80
2023-03-20T21:06:17.900Z,10.80
2023-03-20T21:08:49.227Z,10.80
2023-03-20T21:11:17.767Z,10.80
2023-03-20T21:13:47.894Z,10.80
2023-03-20T21:16:21.746Z,10.70
2023-03-20T21:18:50.053Z,10.70
2023-03-20T21:21:19.631Z,10.70
2023-03-20T21:23:51.246Z,10.70
2023-03-20T21:26:24.687Z,10.70
2023-03-20T21:28:52.778Z,10.70
2023-03-20T21:31:31.815Z,10.90
2023-03-20T21:34:00.141Z,10.80
2023-03-20T21:36:31.732Z,10.80
2023-03-20T21:39:08.326Z,10.90
2023-03-20T21:41:38.129Z,10.90
2023-03-20T21:44:06.875Z,10.90
2023-03-20T21:50:19.323Z,10.90
2023-03-20T21:53:16.982Z,10.90
2023-03-20T21:56:00.038Z,10.80
2023-03-20T22:04:31.826Z,10.70
2023-03-20T22:07:38.451Z,10.60
2023-03-20T22:13:37.231Z,10.50
2023-03-20T22:16:24.377Z,10.50
2023-03-20T22:19:38.605Z,10.50
2023-03-20T22:36:08.084Z,10.30
2023-03-20T22:39:03.995Z,10.20
2023-03-20T22:46:45.753Z,10.20
2023-03-20T22:49:17.313Z,10.20
2023-03-20T22:52:05.093Z,10.20
2023-03-20T22:54:39.202Z,10.30
2023-03-20T22:57:09.386Z,10.40
2023-03-20T22:59:39.175Z,10.40
2023-03-20T23:02:13.664Z,10.40
2023-03-20T23:04:43.180Z,10.50
2023-03-20T23:07:13.692Z,10.60
2023-03-20T23:09:42.169Z,10.60
2023-03-20T23:12:13.304Z,10.60
2023-03-20T23:14:54.831Z,10.70
2023-03-20T23:17:36.974Z,10.70
2023-03-20T23:20:13.636Z,10.70
2023-03-20T23:22:44.623Z,10.70
2023-03-20T23:25:23.592Z,10.70
2023-03-20T23:28:03.878Z,10.80
2023-03-20T23:30:44.956Z,10.60
2023-03-20T23:33:14.803Z,10.70
2023-03-20T23:35:48.365Z,10.70
2023-03-20T23:38:17.895Z,10.80
2023-03-20T23:40:54.548Z,10.70
2023-03-20T23:43:22.669Z,10.60
2023-03-20T23:45:52.628Z,10.60
2023-03-20T23:48:21.378Z,10.60
2023-03-20T23:50:53.420Z,10.60
2023-03-20T23:53:22.148Z,10.50
2023-03-20T23:55:51.721Z,10.40
2023-03-20T23:58:20.861Z,10.40
